createdAt,value
2022-11-10T00:02:24.693Z,60.63
2022-11-10T00:07:30.649Z,72.90
2022-11-10T00:12:36.819Z,58.08
2022-11-10T00:17:42.386Z,58.45
2022-11-10T00:22:47.569Z,58.63
2022-11-10T00:27:52.653Z,58.73
2022-11-10T00:32:59.820Z,57.33
2022-11-10T00:38:04.782Z,59.10
2022-11-10T00:43:09.868Z,59.63
2022-11-10T00:48:15.022Z,60.30
2022-11-10T00:53:21.359Z,55.47
2022-11-10T00:58:27.144Z,58.80
2022-11-10T01:03:33.159Z,52.47
2022-11-10T01:08:39.738Z,52.20
2022-11-10T01:13:45.850Z,49.63
2022-11-10T01:18:55.796Z,50.90
2022-11-10T01:24:04.049Z,51.43
2022-11-10T01:29:09.751Z,50.80
2022-11-10T01:34:15.358Z,49.70
2022-11-10T01:39:20.840Z,49.17
2022-11-10T01:44:27.592Z,49.17
2022-11-10T01:49:35.251Z,48.90
2022-11-10T01:54:47.470Z,50.07
2022-11-10T01:59:52.518Z,48.70
2022-11-10T02:04:57.540Z,49.50
2022-11-10T02:10:04.753Z,48.47
2022-11-10T02:15:12.358Z,49.27
2022-11-10T02:20:20.509Z,48.60
2022-11-10T02:25:28.909Z,49.60
2022-11-10T02:30:33.836Z,49.70
2022-11-10T02:35:38.888Z,50.20
2022-11-10T02:40:44.111Z,49.57
2022-11-10T02:45:49.111Z,51.10
2022-11-10T02:50:54.222Z,49.97
2022-11-10T02:55:59.249Z,50.00
2022-11-10T03:01:07.670Z,49.70
2022-11-10T03:06:13.435Z,49.37
2022-11-10T03:11:18.829Z,48.38
2022-11-10T03:16:24.710Z,49.47
2022-11-10T03:21:30.159Z,47.07
2022-11-10T03:26:35.184Z,47.70
2022-11-10T03:31:40.112Z,48.67
2022-11-10T03:36:45.340Z,48.73
2022-11-10T03:41:50.760Z,46.67
2022-11-10T03:46:55.864Z,45.87
2022-11-10T03:52:00.861Z,45.33
2022-11-10T03:57:06.288Z,47.50
2022-11-10T04:02:12.221Z,48.80
2022-11-10T04:07:35.719Z,48.27
2022-11-10T04:12:58.761Z,47.30
2022-11-10T04:18:21.809Z,46.00
2022-11-10T04:23:31.999Z,45.80
2022-11-10T04:28:36.926Z,48.67
2022-11-10T04:33:43.260Z,45.00
2022-11-10T04:43:54.185Z,44.53
2022-11-10T04:49:00.163Z,45.07
2022-11-10T04:54:07.614Z,45.10
2022-11-10T04:59:12.532Z,45.40
2022-11-10T05:04:17.408Z,45.57
2022-11-10T05:09:22.302Z,45.27
2022-11-10T05:14:27.281Z,46.80
2022-11-10T05:19:32.465Z,46.22
2022-11-10T05:24:37.305Z,45.97
2022-11-10T05:29:42.758Z,47.00
2022-11-10T05:34:48.389Z,45.93
2022-11-10T05:39:53.449Z,44.83
2022-11-10T05:44:58.353Z,45.70
2022-11-10T05:50:06.749Z,47.30
2022-11-10T05:55:14.273Z,45.60
2022-11-10T06:00:23.161Z,45.90
2022-11-10T06:05:31.531Z,45.70
2022-11-10T06:10:37.594Z,44.83
2022-11-10T06:15:49.128Z,45.47
2022-11-10T06:20:50.588Z,45.90
2022-11-10T06:25:55.484Z,46.27
2022-11-10T06:31:00.395Z,45.80
2022-11-10T06:36:05.701Z,45.57
2022-11-10T06:41:12.272Z,45.00
2022-11-10T06:46:17.862Z,45.33
2022-11-10T06:51:23.212Z,45.10
2022-11-10T06:56:28.301Z,45.20
2022-11-10T07:01:33.498Z,45.47
2022-11-10T07:06:38.523Z,45.47
2022-11-10T07:11:43.580Z,45.57
2022-11-10T07:16:49.177Z,45.20
2022-11-10T07:21:54.732Z,45.53
2022-11-10T07:27:00.418Z,44.73
2022-11-10T07:32:06.683Z,44.87
2022-11-10T07:37:12.938Z,44.84
2022-11-10T07:42:17.833Z,45.47
2022-11-10T07:47:25.287Z,44.80
2022-11-10T07:52:31.041Z,45.40
2022-11-10T07:57:37.385Z,44.93
2022-11-10T08:02:42.843Z,44.77
2022-11-10T08:07:48.253Z,45.53
2022-11-10T08:12:58.248Z,45.10
2022-11-10T08:18:05.731Z,44.57
2022-11-10T08:23:10.677Z,45.07
2022-11-10T08:28:18.671Z,45.03
2022-11-10T08:33:24.839Z,45.12
2022-11-10T08:38:31.006Z,45.33
2022-11-10T08:43:36.087Z,45.43
2022-11-10T08:48:41.485Z,45.93
2022-11-10T08:53:47.096Z,45.67
2022-11-10T08:58:53.430Z,45.27
2022-11-10T09:03:59.384Z,46.80
2022-11-10T09:09:05.461Z,46.03
2022-11-10T09:14:13.896Z,45.40
2022-11-10T09:19:20.237Z,45.27
2022-11-10T09:24:31.025Z,45.70
2022-11-10T09:29:32.228Z,45.47
2022-11-10T09:34:37.095Z,45.90
2022-11-10T09:39:42.270Z,45.63
2022-11-10T09:44:51.979Z,45.07
2022-11-10T09:50:02.808Z,45.93
2022-11-10T09:55:22.828Z,45.63
2022-11-10T10:00:30.505Z,45.56
2022-11-10T10:05:41.472Z,45.64
2022-11-10T10:10:52.398Z,45.97
2022-11-10T10:16:12.549Z,45.73
2022-11-10T10:21:42.474Z,46.13
2022-11-10T10:26:50.409Z,46.47
2022-11-10T10:31:57.073Z,46.43
2022-11-10T10:37:02.411Z,46.27
2022-11-10T10:42:16.343Z,45.83
2022-11-10T10:47:23.844Z,46.20
2022-11-10T10:52:29.044Z,46.13
2022-11-10T10:57:34.068Z,45.93
2022-11-10T11:02:39.335Z,46.63
2022-11-10T11:07:59.312Z,45.90
2022-11-10T11:13:23.487Z,45.80
2022-11-10T11:18:31.313Z,46.00
2022-11-10T11:24:00.691Z,46.67
2022-11-10T11:29:23.758Z,46.10
2022-11-10T11:34:43.620Z,46.40
2022-11-10T11:39:54.322Z,46.63
2022-11-10T11:45:20.014Z,45.90
2022-11-10T11:50:43.919Z,46.07
2022-11-10T11:56:07.925Z,46.97
2022-11-10T12:01:31.033Z,46.20
2022-11-10T12:06:58.737Z,46.30
2022-11-10T12:12:21.615Z,46.63
2022-11-10T12:17:53.295Z,46.87
2022-11-10T12:23:16.772Z,46.33
2022-11-10T12:28:30.851Z,46.05
2022-11-10T12:33:41.527Z,46.00
2022-11-10T12:39:08.096Z,46.40
2022-11-10T12:44:19.459Z,45.88
2022-11-10T12:49:36.469Z,45.80
2022-11-10T12:54:43.264Z,35.15
2022-11-10T13:00:03.340Z,45.92
2022-11-10T13:05:15.029Z,45.83
2022-11-10T13:10:25.469Z,46.28
2022-11-10T13:15:43.036Z,46.20
2022-11-10T13:20:56.160Z,45.90
2022-11-10T13:26:05.684Z,46.00
2022-11-10T13:31:31.663Z,45.73
2022-11-10T13:36:51.205Z,46.27
2022-11-10T13:42:05.074Z,45.50
2022-11-10T13:47:13.021Z,46.30
2022-11-10T13:52:29.557Z,47.70
2022-11-10T13:57:40.157Z,45.95
2022-11-10T14:02:55.566Z,45.73
2022-11-10T14:08:13.404Z,45.57
2022-11-10T14:13:22.275Z,45.83
2022-11-10T14:18:52.181Z,47.50
2022-11-10T14:24:18.943Z,45.20
2022-11-10T14:29:42.184Z,45.75
2022-11-10T14:34:54.592Z,45.50
2022-11-10T14:40:02.074Z,46.10
2022-11-10T14:50:31.745Z,46.27
2022-11-10T14:55:38.148Z,45.73
2022-11-10T15:00:45.480Z,45.37
2022-11-10T15:05:50.615Z,46.10
2022-11-10T15:10:57.635Z,46.17
2022-11-10T15:16:25.627Z,46.43
2022-11-10T15:21:33.112Z,46.73
2022-11-10T15:26:40.921Z,46.53
2022-11-10T15:31:46.582Z,45.70
2022-11-10T15:36:55.145Z,45.20
2022-11-10T15:42:04.420Z,45.53
2022-11-10T15:47:12.551Z,45.83
2022-11-10T15:52:24.442Z,45.73
2022-11-10T15:57:31.155Z,45.27
2022-11-10T16:02:39.722Z,44.93
2022-11-10T16:07:46.045Z,45.20
2022-11-10T16:12:53.543Z,46.23
2022-11-10T16:18:00.691Z,45.80
2022-11-10T16:28:14.583Z,46.20
2022-11-10T16:33:21.932Z,46.17
2022-11-10T16:38:30.603Z,48.20
2022-11-10T16:43:37.112Z,48.13
2022-11-10T16:48:45.214Z,50.05
2022-11-10T16:53:52.729Z,63.37
2022-11-10T16:58:58.437Z,59.50
2022-11-10T17:04:06.882Z,55.07
2022-11-10T17:09:22.057Z,52.30
2022-11-10T17:14:28.881Z,51.30
2022-11-10T17:19:34.292Z,56.37
2022-11-10T17:24:40.184Z,53.40
2022-11-10T17:29:47.641Z,54.33
2022-11-10T17:34:52.993Z,54.63
2022-11-10T17:39:58.056Z,54.80
2022-11-10T17:45:04.095Z,57.57
2022-11-10T17:50:09.949Z,56.02
2022-11-10T17:55:21.392Z,58.50
2022-11-10T18:00:27.058Z,67.00
2022-11-10T18:05:32.362Z,68.57
2022-11-10T18:10:39.883Z,58.17
2022-11-10T18:15:46.968Z,57.10
2022-11-10T18:20:52.344Z,58.23
2022-11-10T18:25:59.237Z,56.83
2022-11-10T18:31:09.513Z,56.63
2022-11-10T18:36:15.317Z,63.97
2022-11-10T18:41:38.851Z,70.03
2022-11-10T18:46:45.257Z,77.80
2022-11-10T18:51:52.532Z,64.93
2022-11-10T18:56:59.658Z,61.53
2022-11-10T19:02:04.878Z,58.40
2022-11-10T19:07:10.749Z,56.70
2022-11-10T19:12:16.081Z,58.37
2022-11-10T19:17:22.350Z,54.00
2022-11-10T19:22:28.061Z,57.43
2022-11-10T19:27:35.093Z,56.07
2022-11-10T19:32:40.793Z,66.97
2022-11-10T19:37:48.602Z,55.20
2022-11-10T19:42:53.999Z,65.07
2022-11-10T19:48:00.489Z,55.00
2022-11-10T19:53:06.526Z,55.23
2022-11-10T19:58:12.660Z,62.58
2022-11-10T20:03:18.707Z,69.15
2022-11-10T20:08:24.564Z,74.17
2022-11-10T20:13:31.207Z,71.07
2022-11-10T20:18:40.538Z,55.73
2022-11-10T20:23:45.530Z,63.80
2022-11-10T20:28:50.992Z,66.43
2022-11-10T20:33:57.275Z,53.77
2022-11-10T20:44:07.040Z,52.57
2022-11-10T20:49:13.778Z,58.46
2022-11-10T20:54:19.752Z,65.53
2022-11-10T20:59:25.242Z,61.20
2022-11-10T21:04:31.677Z,57.90
2022-11-10T21:09:38.372Z,55.28
2022-11-10T21:14:44.440Z,53.52
2022-11-10T21:19:50.524Z,46.40
2022-11-10T21:24:56.754Z,45.17
2022-11-10T21:30:03.439Z,43.47
2022-11-10T21:35:09.498Z,45.40
2022-11-10T21:40:15.624Z,44.70
2022-11-10T21:45:20.731Z,44.63
2022-11-10T21:50:25.753Z,45.03
2022-11-10T21:55:30.728Z,47.93
2022-11-10T22:00:36.508Z,44.73
2022-11-10T22:05:42.250Z,43.50
2022-11-10T22:11:04.914Z,43.97
2022-11-10T22:16:39.454Z,48.83
2022-11-10T22:21:47.499Z,44.20
2022-11-10T22:26:53.252Z,44.53
2022-11-10T22:31:58.448Z,48.07
2022-11-10T22:37:03.879Z,47.63
2022-11-10T22:42:29.775Z,47.17
2022-11-10T22:47:53.354Z,49.93
2022-11-10T22:52:58.920Z,50.03
2022-11-10T22:58:05.099Z,49.23
2022-11-10T23:03:10.495Z,48.27
2022-11-10T23:08:15.693Z,50.10
2022-11-10T23:13:20.935Z,46.08
2022-11-10T23:18:26.637Z,43.63
2022-11-10T23:23:36.431Z,44.00
2022-11-10T23:28:41.701Z,45.83
2022-11-10T23:33:48.476Z,45.37
2022-11-10T23:43:58.602Z,45.27
2022-11-10T23:49:04.725Z,44.50
2022-11-10T23:54:09.671Z,44.63
2022-11-10T23:59:14.864Z,43.93
